createdAt,value
2023-05-05T00:00:20.936Z,5.00
2023-05-05T00:03:25.716Z,8.40
2023-05-05T00:06:29.570Z,3.87
2023-05-05T00:09:33.038Z,7.07
2023-05-05T00:12:37.895Z,3.80
2023-05-05T00:15:42.961Z,5.30
2023-05-05T00:18:46.433Z,6.57
2023-05-05T00:21:49.851Z,11.73
2023-05-05T00:24:53.332Z,4.93
2023-05-05T00:27:58.276Z,7.20
2023-05-05T00:31:01.850Z,6.23
2023-05-05T00:34:05.451Z,9.03
2023-05-05T00:37:09.005Z,7.30
2023-05-05T00:40:13.760Z,6.13
2023-05-05T00:43:18.655Z,5.60
2023-05-05T00:46:27.326Z,5.73
2023-05-05T00:49:31.540Z,7.80
2023-05-05T00:52:35.792Z,5.83
2023-05-05T00:55:39.428Z,8.37
2023-05-05T00:58:45.441Z,4.53
2023-05-05T01:01:49.054Z,5.60
2023-05-05T01:04:52.979Z,9.30
2023-05-05T01:08:23.061Z,8.83
2023-05-05T01:11:35.519Z,9.93
2023-05-05T01:14:44.322Z,5.80
2023-05-05T01:18:01.376Z,6.67
2023-05-05T01:21:14.561Z,7.73
2023-05-05T01:24:58.108Z,8.73
2023-05-05T01:28:29.223Z,9.00
2023-05-05T01:31:53.470Z,4.17
2023-05-05T01:35:03.342Z,5.23
2023-05-05T01:38:14.831Z,7.97
2023-05-05T01:41:26.458Z,7.70
2023-05-05T01:44:32.089Z,6.13
2023-05-05T01:47:40.404Z,9.20
2023-05-05T01:50:48.516Z,5.37
2023-05-05T01:53:55.569Z,8.73
2023-05-05T01:57:00.928Z,6.37
2023-05-05T02:00:05.977Z,6.80
2023-05-05T02:03:13.520Z,7.37
2023-05-05T02:06:20.479Z,8.40
2023-05-05T02:09:29.475Z,6.37
2023-05-05T02:12:35.204Z,7.93
2023-05-05T02:15:41.531Z,6.50
2023-05-05T02:18:49.127Z,7.63
2023-05-05T02:21:52.637Z,7.07
2023-05-05T02:24:56.451Z,7.13
2023-05-05T02:28:02.279Z,5.80
2023-05-05T02:31:09.764Z,5.03
2023-05-05T02:34:20.212Z,7.07
2023-05-05T02:37:31.101Z,6.77
2023-05-05T02:40:38.578Z,10.73
2023-05-05T02:43:45.632Z,6.17
2023-05-05T02:46:49.349Z,5.73
2023-05-05T02:49:54.621Z,7.63
2023-05-05T02:52:58.587Z,8.90
2023-05-05T02:56:17.757Z,8.07
2023-05-05T02:59:41.072Z,8.00
2023-05-05T03:02:56.774Z,10.53
2023-05-05T03:06:12.576Z,11.30
2023-05-05T03:09:27.538Z,11.17
2023-05-05T03:12:41.246Z,8.23
2023-05-05T03:15:49.235Z,7.23
2023-05-05T03:18:54.534Z,10.33
2023-05-05T03:22:00.451Z,6.70
2023-05-05T03:25:04.018Z,7.57
2023-05-05T03:28:07.549Z,7.80
2023-05-05T03:31:11.440Z,8.17
2023-05-05T03:34:14.990Z,9.50
2023-05-05T03:37:19.945Z,6.57
2023-05-05T03:40:36.235Z,5.87
2023-05-05T03:43:47.019Z,8.53
2023-05-05T03:46:50.512Z,7.00
2023-05-05T03:49:54.053Z,6.30
2023-05-05T03:52:59.768Z,7.50
2023-05-05T03:56:03.306Z,9.17
2023-05-05T03:59:06.812Z,6.07
2023-05-05T04:02:10.307Z,6.43
2023-05-05T04:05:13.812Z,6.33
2023-05-05T04:08:18.667Z,8.57
2023-05-05T04:11:22.523Z,8.63
2023-05-05T04:14:26.087Z,7.00
2023-05-05T04:17:29.591Z,8.20
2023-05-05T04:20:36.027Z,9.87
2023-05-05T04:23:40.965Z,7.17
2023-05-05T04:26:44.383Z,10.67
2023-05-05T04:29:47.924Z,6.37
2023-05-05T04:32:51.360Z,6.90
2023-05-05T04:35:54.847Z,8.83
2023-05-05T04:38:59.725Z,9.07
2023-05-05T04:42:03.396Z,7.53
2023-05-05T04:45:08.264Z,4.67
2023-05-05T04:48:11.795Z,5.77
2023-05-05T04:51:18.024Z,4.57
2023-05-05T04:54:23.078Z,9.90
2023-05-05T04:57:26.624Z,6.30
2023-05-05T05:00:30.412Z,8.30
2023-05-05T05:03:34.104Z,11.40
2023-05-05T05:06:37.977Z,8.37
2023-05-05T05:09:42.857Z,4.57
2023-05-05T05:12:48.626Z,7.60
2023-05-05T05:15:52.470Z,5.83
2023-05-05T05:18:56.056Z,6.43
2023-05-05T05:21:59.584Z,8.33
2023-05-05T05:25:04.616Z,5.57
2023-05-05T05:28:10.732Z,7.87
2023-05-05T05:31:14.579Z,7.87
2023-05-05T05:34:18.096Z,9.03
2023-05-05T05:37:21.885Z,9.17
2023-05-05T05:40:26.879Z,8.60
2023-05-05T05:43:30.714Z,6.90
2023-05-05T05:46:34.325Z,10.17
2023-05-05T05:49:37.964Z,8.47
2023-05-05T05:52:41.500Z,6.50
2023-05-05T05:55:47.497Z,5.60
2023-05-05T05:58:51.642Z,5.70
2023-05-05T06:01:57.023Z,7.97
2023-05-05T06:05:00.913Z,5.67
2023-05-05T06:08:04.534Z,6.73
2023-05-05T06:11:09.387Z,6.17
2023-05-05T06:14:12.951Z,6.30
2023-05-05T06:17:16.424Z,5.93
2023-05-05T06:20:20.034Z,6.50
2023-05-05T06:23:23.643Z,7.23
2023-05-05T06:26:28.605Z,10.10
2023-05-05T06:29:32.139Z,8.40
2023-05-05T06:32:35.609Z,9.00
2023-05-05T06:35:39.152Z,8.73
2023-05-05T06:38:42.667Z,6.43
2023-05-05T06:41:47.467Z,5.20
2023-05-05T06:44:51.148Z,5.53
2023-05-05T06:47:54.715Z,3.90
2023-05-05T06:50:58.237Z,7.67
2023-05-05T06:54:01.700Z,6.47
2023-05-05T06:57:06.569Z,6.97
2023-05-05T07:00:12.077Z,5.23
2023-05-05T07:03:15.792Z,8.37
2023-05-05T07:06:19.538Z,4.27
2023-05-05T07:09:23.170Z,6.70
2023-05-05T07:12:31.286Z,5.63
2023-05-05T07:15:47.287Z,5.77
2023-05-05T07:18:50.885Z,6.13
2023-05-05T07:21:54.441Z,5.77
2023-05-05T07:24:58.162Z,9.10
2023-05-05T07:28:03.366Z,4.70
2023-05-05T07:31:07.088Z,7.47
2023-05-05T07:34:10.703Z,7.13
2023-05-05T07:37:14.807Z,10.47
2023-05-05T07:40:18.438Z,6.10
2023-05-05T07:43:23.530Z,5.83
2023-05-05T07:46:27.186Z,8.00
2023-05-05T07:49:30.837Z,9.20
2023-05-05T07:52:45.086Z,5.20
2023-05-05T07:55:51.762Z,6.13
2023-05-05T07:58:56.754Z,7.23
2023-05-05T08:02:00.321Z,7.80
2023-05-05T08:05:04.683Z,10.73
2023-05-05T08:08:08.374Z,8.47
2023-05-05T08:11:11.955Z,7.50
2023-05-05T08:14:18.358Z,9.70
2023-05-05T08:17:21.977Z,7.87
2023-05-05T08:20:30.310Z,11.30
2023-05-05T08:23:34.196Z,7.67
2023-05-05T08:26:37.828Z,6.93
2023-05-05T08:29:42.733Z,10.87
2023-05-05T08:32:46.875Z,8.13
2023-05-05T08:35:50.980Z,7.53
2023-05-05T08:38:54.920Z,8.10
2023-05-05T08:41:59.071Z,7.47
2023-05-05T08:45:04.203Z,8.90
2023-05-05T08:48:07.959Z,7.27
2023-05-05T08:51:17.696Z,7.10
2023-05-05T08:54:24.700Z,5.77
2023-05-05T08:57:40.505Z,7.07
2023-05-05T09:00:47.388Z,9.33
2023-05-05T09:03:52.752Z,4.57
2023-05-05T09:06:59.439Z,4.33
2023-05-05T09:10:06.133Z,11.50
2023-05-05T09:13:09.931Z,4.70
2023-05-05T09:16:34.995Z,4.40
2023-05-05T09:20:04.850Z,7.57
2023-05-05T09:23:14.195Z,6.60
2023-05-05T09:26:17.756Z,8.00
2023-05-05T09:29:22.702Z,5.90
2023-05-05T09:32:30.518Z,6.87
2023-05-05T09:35:50.055Z,8.43
2023-05-05T09:39:09.389Z,9.17
2023-05-05T09:42:19.949Z,8.67
2023-05-05T09:45:28.451Z,9.17
2023-05-05T09:48:33.925Z,10.53
2023-05-05T09:51:37.796Z,10.73
2023-05-05T09:54:41.897Z,8.73
2023-05-05T09:57:47.533Z,6.67
2023-05-05T10:00:52.060Z,10.60
2023-05-05T10:03:57.325Z,7.03
2023-05-05T10:07:01.153Z,7.17
2023-05-05T10:10:07.113Z,8.90
2023-05-05T10:13:12.916Z,8.87
2023-05-05T10:16:20.911Z,8.47
2023-05-05T10:19:28.928Z,7.27
2023-05-05T10:22:36.593Z,6.53
2023-05-05T10:25:54.220Z,7.13
2023-05-05T10:29:01.499Z,4.10
2023-05-05T10:32:37.002Z,6.97
2023-05-05T10:35:42.757Z,6.07
2023-05-05T10:38:47.860Z,5.80
2023-05-05T10:41:53.350Z,7.53
2023-05-05T10:44:56.865Z,6.13
2023-05-05T10:48:07.789Z,5.87
2023-05-05T10:51:39.442Z,9.47
2023-05-05T10:54:51.564Z,5.17
2023-05-05T10:57:55.994Z,5.30
2023-05-05T11:00:59.497Z,6.97
2023-05-05T11:04:23.316Z,8.63
2023-05-05T11:07:28.257Z,5.27
2023-05-05T11:10:45.984Z,5.23
2023-05-05T11:14:22.393Z,4.70
2023-05-05T11:17:46.590Z,7.20
2023-05-05T11:21:17.600Z,8.80
2023-05-05T11:24:30.688Z,7.67
2023-05-05T11:28:08.055Z,6.77
2023-05-05T11:31:20.275Z,10.27
2023-05-05T11:34:29.032Z,10.13
2023-05-05T11:37:32.577Z,6.97
2023-05-05T11:40:43.088Z,8.93
2023-05-05T11:43:46.850Z,9.07
2023-05-05T11:47:35.272Z,7.43
2023-05-05T11:50:39.929Z,9.57
2023-05-05T11:53:44.489Z,8.97
2023-05-05T11:56:54.990Z,6.97
2023-05-05T12:00:01.756Z,6.23
2023-05-05T12:03:06.443Z,5.30
2023-05-05T12:06:11.143Z,8.13
2023-05-05T12:09:18.189Z,9.90
2023-05-05T12:12:40.219Z,6.77
2023-05-05T12:15:44.493Z,6.43
2023-05-05T12:19:33.127Z,5.43
2023-05-05T12:22:42.693Z,6.83
2023-05-05T12:25:48.514Z,7.73
2023-05-05T12:28:57.152Z,20.40
2023-05-05T12:32:05.237Z,7.73
2023-05-05T12:35:10.819Z,4.80
2023-05-05T12:38:16.705Z,7.47
2023-05-05T12:41:21.249Z,11.20
2023-05-05T12:44:35.910Z,7.33
2023-05-05T12:47:44.069Z,6.80
2023-05-05T12:50:47.683Z,6.33
2023-05-05T12:54:05.365Z,10.53
2023-05-05T12:57:13.086Z,8.33
2023-05-05T13:00:19.047Z,6.97
2023-05-05T13:03:22.717Z,8.80
2023-05-05T13:06:27.392Z,12.00
2023-05-05T13:09:33.981Z,7.93
2023-05-05T13:12:37.716Z,7.70
2023-05-05T13:15:42.767Z,5.17
2023-05-05T13:18:46.546Z,7.40
2023-05-05T13:21:52.618Z,5.60
2023-05-05T13:24:58.937Z,7.27
2023-05-05T13:28:02.634Z,6.00
2023-05-05T13:31:08.342Z,7.73
2023-05-05T13:34:12.215Z,6.03
2023-05-05T13:37:15.748Z,7.60
2023-05-05T13:40:19.301Z,6.20
2023-05-05T13:43:22.924Z,9.87
2023-05-05T13:46:28.310Z,7.57
2023-05-05T13:49:33.134Z,7.70
2023-05-05T13:52:37.522Z,7.20
2023-05-05T13:55:41.205Z,8.10
2023-05-05T13:58:44.768Z,7.00
2023-05-05T14:01:50.179Z,9.07
2023-05-05T14:04:53.754Z,11.83
2023-05-05T14:07:57.327Z,12.70
2023-05-05T14:11:01.985Z,6.87
2023-05-05T14:14:06.171Z,7.03
2023-05-05T14:17:11.608Z,5.90
2023-05-05T14:20:15.242Z,6.97
2023-05-05T14:23:18.680Z,10.40
2023-05-05T14:26:22.238Z,8.70
2023-05-05T14:29:25.701Z,12.30
2023-05-05T14:32:30.660Z,7.43
2023-05-05T14:35:34.188Z,8.70
2023-05-05T14:38:37.783Z,4.93
2023-05-05T14:41:41.411Z,5.80
2023-05-05T14:44:44.984Z,8.30
2023-05-05T14:47:49.965Z,10.27
2023-05-05T14:50:53.440Z,7.60
2023-05-05T14:53:56.997Z,5.53
2023-05-05T14:57:00.617Z,9.37
2023-05-05T15:00:05.210Z,7.30
2023-05-05T15:03:10.539Z,8.37
2023-05-05T15:06:14.461Z,6.77
2023-05-05T15:09:18.113Z,6.73
2023-05-05T15:12:21.573Z,7.83
2023-05-05T15:15:25.074Z,5.43
2023-05-05T15:18:30.026Z,8.53
2023-05-05T15:21:33.718Z,6.97
2023-05-05T15:24:37.308Z,6.57
2023-05-05T15:27:41.004Z,7.67
2023-05-05T15:30:44.533Z,9.43
2023-05-05T15:33:50.165Z,9.03
2023-05-05T15:36:54.555Z,5.30
2023-05-05T15:39:58.080Z,5.53
2023-05-05T15:43:01.628Z,9.17
2023-05-05T15:46:05.221Z,11.40
2023-05-05T15:49:10.722Z,7.00
2023-05-05T15:52:14.269Z,7.53
2023-05-05T15:55:19.093Z,7.20
2023-05-05T15:58:22.575Z,5.67
2023-05-05T16:01:26.213Z,7.60
2023-05-05T16:04:31.248Z,8.07
2023-05-05T16:07:34.845Z,7.07
2023-05-05T16:10:38.593Z,10.53
2023-05-05T16:13:42.650Z,11.17
2023-05-05T16:16:46.253Z,8.20
2023-05-05T16:19:51.252Z,7.37
2023-05-05T16:22:54.882Z,7.53
2023-05-05T16:25:58.384Z,9.77
2023-05-05T16:29:01.836Z,9.40
2023-05-05T16:32:06.165Z,12.73
2023-05-05T16:35:12.208Z,19.50
2023-05-05T16:38:15.704Z,8.67
2023-05-05T16:41:19.266Z,6.03
2023-05-05T16:44:22.844Z,10.70
2023-05-05T16:47:27.253Z,9.27
2023-05-05T16:50:32.340Z,6.50
2023-05-05T16:53:35.925Z,9.13
2023-05-05T16:56:39.517Z,6.77
2023-05-05T16:59:42.944Z,10.57
2023-05-05T17:02:46.482Z,15.00
2023-05-05T17:05:54.119Z,12.80
2023-05-05T17:08:57.613Z,11.13
2023-05-05T17:12:01.098Z,11.93
2023-05-05T17:15:10.593Z,15.63
2023-05-05T17:18:20.395Z,9.80
2023-05-05T17:21:25.508Z,12.07
2023-05-05T17:24:29.298Z,15.93
2023-05-05T17:27:33.502Z,11.40
2023-05-05T17:30:41.739Z,13.97
2023-05-05T17:43:31.419Z,14.43
2023-05-05T17:46:49.872Z,15.37
2023-05-05T17:49:55.796Z,15.23
2023-05-05T17:52:59.571Z,19.20
2023-05-05T17:56:06.527Z,16.87
2023-05-05T17:59:11.718Z,16.63
2023-05-05T18:02:15.394Z,18.77
2023-05-05T18:05:19.285Z,17.37
2023-05-05T18:08:23.307Z,18.20
2023-05-05T18:11:30.739Z,16.00
2023-05-05T18:14:35.866Z,17.03
2023-05-05T18:17:45.150Z,15.37
2023-05-05T18:20:51.377Z,18.87
2023-05-05T18:23:59.501Z,19.63
2023-05-05T18:27:14.475Z,21.57
2023-05-05T18:30:18.397Z,23.13
2023-05-05T18:33:22.036Z,21.30
2023-05-05T18:36:27.711Z,22.07
2023-05-05T18:39:31.316Z,23.73
2023-05-05T18:42:37.319Z,19.63
2023-05-05T18:45:40.854Z,20.00
2023-05-05T18:48:44.558Z,22.27
2023-05-05T18:51:48.068Z,19.43
2023-05-05T18:54:51.662Z,20.63
2023-05-05T18:57:56.669Z,26.33
2023-05-05T19:01:00.290Z,21.73
2023-05-05T19:04:05.375Z,21.93
2023-05-05T19:07:14.511Z,26.37
2023-05-05T19:10:24.821Z,26.37
2023-05-05T19:13:29.797Z,24.73
2023-05-05T19:16:33.424Z,26.93
2023-05-05T19:19:37.169Z,24.03
2023-05-05T19:22:40.876Z,22.60
2023-05-05T19:25:44.829Z,22.10
2023-05-05T19:28:49.705Z,23.03
2023-05-05T19:31:53.322Z,19.00
2023-05-05T19:34:56.993Z,18.50
2023-05-05T19:38:00.976Z,15.33
2023-05-05T19:41:04.444Z,17.33
2023-05-05T19:44:09.281Z,13.93
2023-05-05T19:47:12.901Z,12.97
2023-05-05T19:50:16.636Z,13.83
2023-05-05T19:53:20.192Z,13.03
2023-05-05T19:56:24.025Z,13.77
2023-05-05T19:59:29.012Z,10.67
2023-05-05T20:02:33.743Z,14.27
2023-05-05T20:05:39.190Z,11.17
2023-05-05T20:08:42.663Z,14.50
2023-05-05T20:11:46.129Z,12.70
2023-05-05T20:14:51.558Z,12.73
2023-05-05T20:17:55.168Z,13.43
2023-05-05T20:20:59.945Z,12.20
2023-05-05T20:24:03.380Z,12.40
2023-05-05T20:27:08.335Z,11.03
2023-05-05T20:30:14.516Z,11.13
2023-05-05T20:33:18.100Z,11.23
2023-05-05T20:36:22.852Z,12.00
2023-05-05T20:39:28.482Z,10.07
2023-05-05T20:42:31.920Z,10.47
2023-05-05T20:45:37.180Z,11.53
2023-05-05T20:48:43.000Z,13.43
2023-05-05T20:51:46.715Z,14.70
2023-05-05T20:54:50.173Z,14.00
2023-05-05T20:57:53.637Z,13.20
2023-05-05T21:00:58.699Z,12.90
2023-05-05T21:04:02.395Z,12.67
2023-05-05T21:07:06.630Z,14.33
2023-05-05T21:10:11.929Z,14.80
2023-05-05T21:13:15.683Z,14.60
2023-05-05T21:16:21.076Z,11.83
2023-05-05T21:19:24.607Z,12.27
2023-05-05T21:22:28.277Z,15.03
2023-05-05T21:25:32.054Z,12.23
2023-05-05T21:28:35.578Z,12.67
2023-05-05T21:31:40.662Z,13.23
2023-05-05T21:34:44.199Z,12.67
2023-05-05T21:37:48.008Z,13.13
2023-05-05T21:40:57.546Z,14.17
2023-05-05T21:44:01.123Z,12.10
2023-05-05T21:47:06.487Z,12.87
2023-05-05T21:50:11.205Z,12.33
2023-05-05T21:53:14.971Z,14.67
2023-05-05T21:56:18.464Z,13.37
2023-05-05T21:59:22.033Z,14.23
2023-05-05T22:02:26.910Z,14.67
2023-05-05T22:05:31.541Z,16.37
2023-05-05T22:08:34.979Z,16.00
2023-05-05T22:11:38.417Z,17.53
2023-05-05T22:14:41.874Z,15.40
2023-05-05T22:17:46.989Z,17.70
2023-05-05T22:20:51.426Z,15.87
2023-05-05T22:23:54.992Z,15.83
2023-05-05T22:26:58.570Z,15.57
2023-05-05T22:30:02.275Z,17.00
2023-05-05T22:33:07.452Z,16.83
2023-05-05T22:36:11.557Z,16.50
2023-05-05T22:39:15.151Z,16.23
2023-05-05T22:42:18.676Z,17.97
2023-05-05T22:45:32.021Z,16.97
2023-05-05T22:48:37.003Z,17.23
2023-05-05T22:51:40.482Z,18.00
2023-05-05T22:54:44.085Z,19.27
2023-05-05T22:57:47.693Z,20.53
2023-05-05T23:00:51.399Z,23.67
2023-05-05T23:03:56.417Z,20.37
2023-05-05T23:06:59.986Z,19.97
2023-05-05T23:10:03.758Z,21.53
2023-05-05T23:13:07.526Z,22.53
2023-05-05T23:16:11.868Z,26.13
2023-05-05T23:19:16.853Z,21.13
2023-05-05T23:22:20.396Z,24.20
2023-05-05T23:25:23.962Z,23.90
2023-05-05T23:28:27.581Z,24.93
2023-05-05T23:31:31.389Z,24.83
2023-05-05T23:34:36.294Z,23.90
2023-05-05T23:37:39.821Z,23.50
2023-05-05T23:40:43.350Z,24.40
2023-05-05T23:43:47.177Z,26.13
2023-05-05T23:46:50.729Z,29.20
2023-05-05T23:49:55.600Z,26.53
2023-05-05T23:52:59.181Z,24.87
2023-05-05T23:56:02.795Z,25.90
2023-05-05T23:59:06.303Z,24.77
